sensor_id;sensor_type;location;lat;lon;timestamp;pressure;altitude;pressure_sealevel;temperature;humidity
73242;BME280;65659;49.234;-2.094;2023-12-20T00:01:16;101501.88;;;11.99;47.35
73242;BME280;65659;49.234;-2.094;2023-12-20T00:03:42;101500.35;;;12.17;47.11
73242;BME280;65659;49.234;-2.094;2023-12-20T00:06:07;101504.67;;;12.27;46.60
73242;BME280;65659;49.234;-2.094;2023-12-20T00:08:33;101508.48;;;12.26;46.46
73242;BME280;65659;49.234;-2.094;2023-12-20T00:10:59;101521.26;;;11.96;46.71
73242;BME280;65659;49.234;-2.094;2023-12-20T00:13:25;101520.62;;;12.09;47.28
73242;BME280;65659;49.234;-2.094;2023-12-20T00:15:50;101521.73;;;11.87;48.24
73242;BME280;65659;49.234;-2.094;2023-12-20T00:18:15;101525.52;;;11.80;49.03
73242;BME280;65659;49.234;-2.094;2023-12-20T00:20:41;101522.35;;;11.54;49.73
73242;BME280;65659;49.234;-2.094;2023-12-20T00:23:06;101531.48;;;11.36;49.99
73242;BME280;65659;49.234;-2.094;2023-12-20T00:25:32;101529.93;;;11.39;49.97
73242;BME280;65659;49.234;-2.094;2023-12-20T00:27:57;101521.78;;;11.34;50.23
73242;BME280;65659;49.234;-2.094;2023-12-20T00:30:23;101515.40;;;11.62;50.30
73242;BME280;65659;49.234;-2.094;2023-12-20T00:32:48;101512.54;;;11.30;50.50
73242;BME280;65659;49.234;-2.094;2023-12-20T00:35:13;101510.46;;;11.55;50.52
73242;BME280;65659;49.234;-2.094;2023-12-20T00:37:38;101509.51;;;11.61;50.59
73242;BME280;65659;49.234;-2.094;2023-12-20T00:40:04;101508.56;;;11.25;50.77
73242;BME280;65659;49.234;-2.094;2023-12-20T00:42:28;101511.67;;;11.50;50.89
73242;BME280;65659;49.234;-2.094;2023-12-20T00:44:53;101500.11;;;11.46;51.00
73242;BME280;65659;49.234;-2.094;2023-12-20T00:47:19;101506.04;;;11.27;51.02
73242;BME280;65659;49.234;-2.094;2023-12-20T00:49:44;101515.15;;;11.25;51.06
73242;BME280;65659;49.234;-2.094;2023-12-20T00:52:09;101515.75;;;11.74;50.71
73242;BME280;65659;49.234;-2.094;2023-12-20T00:54:34;101510.65;;;11.58;50.50
73242;BME280;65659;49.234;-2.094;2023-12-20T00:56:59;101514.39;;;11.89;50.33
73242;BME280;65659;49.234;-2.094;2023-12-20T00:59:24;101522.85;;;11.71;49.99
73242;BME280;65659;49.234;-2.094;2023-12-20T01:01:50;101524.99;;;11.72;49.69
73242;BME280;65659;49.234;-2.094;2023-12-20T01:04:15;101518.10;;;11.77;49.44
73242;BME280;65659;49.234;-2.094;2023-12-20T01:06:40;101510.53;;;12.01;48.67
73242;BME280;65659;49.234;-2.094;2023-12-20T01:09:05;101503.15;;;11.95;48.52
73242;BME280;65659;49.234;-2.094;2023-12-20T01:11:31;101512.24;;;11.99;48.78
73242;BME280;65659;49.234;-2.094;2023-12-20T01:13:56;101518.29;;;11.61;50.08
73242;BME280;65659;49.234;-2.094;2023-12-20T01:16:21;101514.74;;;11.49;50.45
73242;BME280;65659;49.234;-2.094;2023-12-20T01:18:47;101510.76;;;11.26;50.71
73242;BME280;65659;49.234;-2.094;2023-12-20T01:21:12;101510.49;;;11.18;50.43
73242;BME280;65659;49.234;-2.094;2023-12-20T01:23:37;101513.52;;;11.18;50.15
73242;BME280;65659;49.234;-2.094;2023-12-20T01:26:03;101517.75;;;11.10;50.28
73242;BME280;65659;49.234;-2.094;2023-12-20T01:28:27;101511.30;;;11.15;50.32
73242;BME280;65659;49.234;-2.094;2023-12-20T01:30:52;101513.06;;;11.29;50.60
73242;BME280;65659;49.234;-2.094;2023-12-20T01:33:18;101516.45;;;11.18;50.81
73242;BME280;65659;49.234;-2.094;2023-12-20T01:35:43;101513.79;;;11.11;50.47
73242;BME280;65659;49.234;-2.094;2023-12-20T01:38:09;101509.97;;;11.18;50.69
73242;BME280;65659;49.234;-2.094;2023-12-20T01:40:33;101511.44;;;11.49;50.64
73242;BME280;65659;49.234;-2.094;2023-12-20T01:42:59;101507.64;;;11.31;51.22
73242;BME280;65659;49.234;-2.094;2023-12-20T01:45:24;101502.54;;;11.55;50.64
73242;BME280;65659;49.234;-2.094;2023-12-20T01:47:49;101504.65;;;11.42;50.21
73242;BME280;65659;49.234;-2.094;2023-12-20T01:50:14;101518.27;;;11.41;49.76
73242;BME280;65659;49.234;-2.094;2023-12-20T01:52:39;101509.72;;;11.59;50.71
73242;BME280;65659;49.234;-2.094;2023-12-20T01:55:05;101513.47;;;11.27;51.61
73242;BME280;65659;49.234;-2.094;2023-12-20T01:57:29;101520.62;;;10.54;51.91
73242;BME280;65659;49.234;-2.094;2023-12-20T01:59:54;101508.85;;;10.89;51.81
73242;BME280;65659;49.234;-2.094;2023-12-20T02:02:20;101496.33;;;10.83;51.80
73242;BME280;65659;49.234;-2.094;2023-12-20T02:04:44;101502.60;;;10.70;51.99
73242;BME280;65659;49.234;-2.094;2023-12-20T02:07:10;101496.00;;;10.49;52.26
73242;BME280;65659;49.234;-2.094;2023-12-20T02:09:35;101495.82;;;10.64;51.98
73242;BME280;65659;49.234;-2.094;2023-12-20T02:12:00;101498.81;;;10.54;52.02
73242;BME280;65659;49.234;-2.094;2023-12-20T02:14:25;101494.84;;;10.56;52.13
73242;BME280;65659;49.234;-2.094;2023-12-20T02:16:51;101505.94;;;10.45;52.38
73242;BME280;65659;49.234;-2.094;2023-12-20T02:19:15;101493.76;;;10.80;51.47
73242;BME280;65659;49.234;-2.094;2023-12-20T02:21:41;101500.28;;;10.70;50.65
73242;BME280;65659;49.234;-2.094;2023-12-20T02:24:06;101515.15;;;10.61;49.75
73242;BME280;65659;49.234;-2.094;2023-12-20T02:26:32;101503.88;;;10.76;49.41
73242;BME280;65659;49.234;-2.094;2023-12-20T02:28:56;101510.35;;;10.98;49.21
73242;BME280;65659;49.234;-2.094;2023-12-20T02:31:23;101517.28;;;10.97;49.38
73242;BME280;65659;49.234;-2.094;2023-12-20T02:33:47;101522.81;;;10.96;49.59
73242;BME280;65659;49.234;-2.094;2023-12-20T02:36:12;101518.36;;;11.22;48.79
73242;BME280;65659;49.234;-2.094;2023-12-20T02:38:37;101535.85;;;11.11;48.36
73242;BME280;65659;49.234;-2.094;2023-12-20T02:41:03;101519.14;;;11.00;47.96
73242;BME280;65659;49.234;-2.094;2023-12-20T02:43:27;101529.11;;;11.22;47.53
73242;BME280;65659;49.234;-2.094;2023-12-20T02:45:52;101521.83;;;10.97;47.66
73242;BME280;65659;49.234;-2.094;2023-12-20T02:48:18;101525.30;;;11.36;47.46
73242;BME280;65659;49.234;-2.094;2023-12-20T02:50:43;101526.54;;;11.16;47.51
73242;BME280;65659;49.234;-2.094;2023-12-20T02:53:08;101520.54;;;11.11;47.24
73242;BME280;65659;49.234;-2.094;2023-12-20T02:55:33;101512.49;;;11.46;47.32
73242;BME280;65659;49.234;-2.094;2023-12-20T02:57:59;101516.01;;;11.49;47.32
73242;BME280;65659;49.234;-2.094;2023-12-20T03:00:24;101519.39;;;11.20;47.75
73242;BME280;65659;49.234;-2.094;2023-12-20T03:02:49;101513.02;;;11.15;47.93
73242;BME280;65659;49.234;-2.094;2023-12-20T03:05:14;101513.13;;;11.61;47.47
73242;BME280;65659;49.234;-2.094;2023-12-20T03:07:40;101512.46;;;11.66;47.27
73242;BME280;65659;49.234;-2.094;2023-12-20T03:10:06;101520.23;;;11.61;47.01
73242;BME280;65659;49.234;-2.094;2023-12-20T03:12:30;101522.75;;;11.34;46.55
73242;BME280;65659;49.234;-2.094;2023-12-20T03:14:55;101514.49;;;11.44;46.16
73242;BME280;65659;49.234;-2.094;2023-12-20T03:17:21;101505.25;;;11.43;46.35
73242;BME280;65659;49.234;-2.094;2023-12-20T03:19:46;101512.60;;;11.44;46.45
73242;BME280;65659;49.234;-2.094;2023-12-20T03:22:12;101508.57;;;11.46;46.51
73242;BME280;65659;49.234;-2.094;2023-12-20T03:24:37;101503.27;;;11.38;46.81
73242;BME280;65659;49.234;-2.094;2023-12-20T03:27:02;101504.78;;;11.53;46.51
73242;BME280;65659;49.234;-2.094;2023-12-20T03:29:27;101511.13;;;11.37;46.70
73242;BME280;65659;49.234;-2.094;2023-12-20T03:31:52;101506.09;;;11.69;46.69
73242;BME280;65659;49.234;-2.094;2023-12-20T03:34:17;101517.87;;;11.50;46.81
73242;BME280;65659;49.234;-2.094;2023-12-20T03:36:43;101514.05;;;11.41;47.06
73242;BME280;65659;49.234;-2.094;2023-12-20T03:39:07;101508.98;;;11.44;47.07
73242;BME280;65659;49.234;-2.094;2023-12-20T03:41:32;101516.90;;;11.63;47.17
73242;BME280;65659;49.234;-2.094;2023-12-20T03:43:58;101508.32;;;11.68;46.99
73242;BME280;65659;49.234;-2.094;2023-12-20T03:46:22;101511.54;;;11.59;46.99
73242;BME280;65659;49.234;-2.094;2023-12-20T03:48:47;101514.68;;;11.46;46.89
73242;BME280;65659;49.234;-2.094;2023-12-20T03:51:13;101516.55;;;11.56;46.34
73242;BME280;65659;49.234;-2.094;2023-12-20T03:53:39;101516.24;;;11.68;46.02
73242;BME280;65659;49.234;-2.094;2023-12-20T03:56:05;101505.29;;;12.03;45.72
73242;BME280;65659;49.234;-2.094;2023-12-20T03:58:29;101498.89;;;11.56;46.00
73242;BME280;65659;49.234;-2.094;2023-12-20T04:00:54;101506.64;;;12.00;45.70
73242;BME280;65659;49.234;-2.094;2023-12-20T04:03:19;101513.76;;;12.05;45.44
73242;BME280;65659;49.234;-2.094;2023-12-20T04:05:44;101507.09;;;11.75;45.47
73242;BME280;65659;49.234;-2.094;2023-12-20T04:08:10;101505.34;;;11.69;45.70
73242;BME280;65659;49.234;-2.094;2023-12-20T04:10:36;101506.49;;;11.88;45.54
73242;BME280;65659;49.234;-2.094;2023-12-20T04:13:01;101504.01;;;11.98;45.56
73242;BME280;65659;49.234;-2.094;2023-12-20T04:15:26;101500.50;;;12.34;45.45
73242;BME280;65659;49.234;-2.094;2023-12-20T04:17:51;101498.77;;;12.10;45.59
73242;BME280;65659;49.234;-2.094;2023-12-20T04:20:17;101495.49;;;12.18;45.48
73242;BME280;65659;49.234;-2.094;2023-12-20T04:22:42;101495.63;;;11.89;45.44
73242;BME280;65659;49.234;-2.094;2023-12-20T04:25:08;101496.99;;;12.00;45.56
73242;BME280;65659;49.234;-2.094;2023-12-20T04:27:32;101493.72;;;11.71;45.53
73242;BME280;65659;49.234;-2.094;2023-12-20T04:29:57;101505.55;;;12.13;45.34
73242;BME280;65659;49.234;-2.094;2023-12-20T04:32:23;101510.23;;;11.88;45.44
73242;BME280;65659;49.234;-2.094;2023-12-20T04:34:48;101506.57;;;11.92;45.47
73242;BME280;65659;49.234;-2.094;2023-12-20T04:37:13;101508.35;;;11.99;45.44
73242;BME280;65659;49.234;-2.094;2023-12-20T04:39:39;101518.09;;;11.90;45.71
73242;BME280;65659;49.234;-2.094;2023-12-20T04:42:04;101520.62;;;11.94;45.66
73242;BME280;65659;49.234;-2.094;2023-12-20T04:44:29;101512.29;;;12.11;45.72
73242;BME280;65659;49.234;-2.094;2023-12-20T04:46:59;101509.74;;;12.21;45.54
73242;BME280;65659;49.234;-2.094;2023-12-20T04:49:19;101524.06;;;12.07;45.77
73242;BME280;65659;49.234;-2.094;2023-12-20T04:51:44;101514.53;;;11.96;45.36
73242;BME280;65659;49.234;-2.094;2023-12-20T04:54:10;101511.89;;;12.01;45.14
73242;BME280;65659;49.234;-2.094;2023-12-20T04:56:35;101504.39;;;12.30;44.85
73242;BME280;65659;49.234;-2.094;2023-12-20T04:59:01;101514.89;;;12.21;44.96
73242;BME280;65659;49.234;-2.094;2023-12-20T05:01:27;101515.58;;;12.12;44.98
73242;BME280;65659;49.234;-2.094;2023-12-20T05:03:52;101517.48;;;12.40;44.26
73242;BME280;65659;49.234;-2.094;2023-12-20T05:06:18;101519.36;;;12.17;44.21
73242;BME280;65659;49.234;-2.094;2023-12-20T05:08:44;101512.48;;;12.50;44.11
73242;BME280;65659;49.234;-2.094;2023-12-20T05:11:09;101519.79;;;12.63;44.13
73242;BME280;65659;49.234;-2.094;2023-12-20T05:13:33;101522.93;;;12.39;44.40
73242;BME280;65659;49.234;-2.094;2023-12-20T05:15:59;101517.64;;;12.68;44.20
73242;BME280;65659;49.234;-2.094;2023-12-20T05:18:25;101514.46;;;12.67;44.38
73242;BME280;65659;49.234;-2.094;2023-12-20T05:20:51;101512.88;;;12.55;44.34
73242;BME280;65659;49.234;-2.094;2023-12-20T05:23:17;101511.07;;;12.83;44.30
73242;BME280;65659;49.234;-2.094;2023-12-20T05:25:42;101507.14;;;12.93;44.04
73242;BME280;65659;49.234;-2.094;2023-12-20T05:28:08;101509.54;;;12.68;44.08
73242;BME280;65659;49.234;-2.094;2023-12-20T05:30:33;101510.97;;;12.83;44.32
73242;BME280;65659;49.234;-2.094;2023-12-20T05:32:59;101505.56;;;12.58;44.50
73242;BME280;65659;49.234;-2.094;2023-12-20T05:35:24;101507.86;;;12.57;44.61
73242;BME280;65659;49.234;-2.094;2023-12-20T05:37:50;101515.24;;;12.86;44.63
73242;BME280;65659;49.234;-2.094;2023-12-20T05:40:15;101509.53;;;12.78;44.87
73242;BME280;65659;49.234;-2.094;2023-12-20T05:42:40;101515.12;;;12.96;44.62
73242;BME280;65659;49.234;-2.094;2023-12-20T05:45:06;101511.66;;;12.74;44.58
73242;BME280;65659;49.234;-2.094;2023-12-20T05:47:31;101522.27;;;12.90;44.50
73242;BME280;65659;49.234;-2.094;2023-12-20T05:49:56;101534.23;;;12.88;44.70
73242;BME280;65659;49.234;-2.094;2023-12-20T05:52:22;101522.38;;;12.81;45.10
73242;BME280;65659;49.234;-2.094;2023-12-20T05:54:47;101522.65;;;12.90;45.12
73242;BME280;65659;49.234;-2.094;2023-12-20T05:57:13;101519.53;;;12.97;44.95
73242;BME280;65659;49.234;-2.094;2023-12-20T05:59:39;101518.84;;;12.91;44.80
73242;BME280;65659;49.234;-2.094;2023-12-20T06:02:05;101521.09;;;12.81;44.71
73242;BME280;65659;49.234;-2.094;2023-12-20T06:04:30;101528.26;;;12.92;44.56
73242;BME280;65659;49.234;-2.094;2023-12-20T06:06:56;101531.84;;;12.70;44.47
73242;BME280;65659;49.234;-2.094;2023-12-20T06:09:21;101519.31;;;13.09;44.27
73242;BME280;65659;49.234;-2.094;2023-12-20T06:11:46;101525.47;;;12.93;44.64
73242;BME280;65659;49.234;-2.094;2023-12-20T06:14:12;101528.73;;;12.84;44.60
73242;BME280;65659;49.234;-2.094;2023-12-20T06:16:37;101530.75;;;12.35;44.33
73242;BME280;65659;49.234;-2.094;2023-12-20T06:19:03;101520.45;;;12.75;44.10
73242;BME280;65659;49.234;-2.094;2023-12-20T06:21:28;101525.74;;;12.72;43.59
73242;BME280;65659;49.234;-2.094;2023-12-20T06:23:54;101530.69;;;12.83;43.37
73242;BME280;65659;49.234;-2.094;2023-12-20T06:26:19;101542.54;;;12.75;43.75
73242;BME280;65659;49.234;-2.094;2023-12-20T06:28:45;101542.26;;;12.91;43.85
73242;BME280;65659;49.234;-2.094;2023-12-20T06:31:10;101547.22;;;12.62;44.19
73242;BME280;65659;49.234;-2.094;2023-12-20T06:33:36;101544.00;;;12.85;44.22
73242;BME280;65659;49.234;-2.094;2023-12-20T06:36:02;101542.42;;;12.73;44.30
73242;BME280;65659;49.234;-2.094;2023-12-20T06:38:27;101540.73;;;12.86;44.18
73242;BME280;65659;49.234;-2.094;2023-12-20T06:40:54;101540.02;;;12.71;44.49
73242;BME280;65659;49.234;-2.094;2023-12-20T06:43:19;101532.68;;;12.52;44.62
73242;BME280;65659;49.234;-2.094;2023-12-20T06:45:44;101529.80;;;12.93;44.52
73242;BME280;65659;49.234;-2.094;2023-12-20T06:48:10;101540.48;;;12.81;44.33
73242;BME280;65659;49.234;-2.094;2023-12-20T06:50:35;101546.85;;;12.65;44.68
73242;BME280;65659;49.234;-2.094;2023-12-20T06:53:01;101545.99;;;12.86;44.73
73242;BME280;65659;49.234;-2.094;2023-12-20T06:55:26;101545.14;;;12.76;44.85
73242;BME280;65659;49.234;-2.094;2023-12-20T06:57:51;101538.66;;;12.39;44.80
73242;BME280;65659;49.234;-2.094;2023-12-20T07:00:18;101532.30;;;12.66;44.81
73242;BME280;65659;49.234;-2.094;2023-12-20T07:02:44;101530.39;;;12.90;44.88
73242;BME280;65659;49.234;-2.094;2023-12-20T07:05:08;101529.60;;;12.39;44.88
73242;BME280;65659;49.234;-2.094;2023-12-20T07:07:34;101526.00;;;12.43;44.82
73242;BME280;65659;49.234;-2.094;2023-12-20T07:09:59;101530.98;;;12.78;44.73
73242;BME280;65659;49.234;-2.094;2023-12-20T07:12:25;101521.02;;;12.99;44.97
73242;BME280;65659;49.234;-2.094;2023-12-20T07:14:50;101522.42;;;12.66;44.93
73242;BME280;65659;49.234;-2.094;2023-12-20T07:17:15;101520.30;;;12.66;45.17
73242;BME280;65659;49.234;-2.094;2023-12-20T07:19:42;101514.81;;;12.91;45.49
73242;BME280;65659;49.234;-2.094;2023-12-20T07:22:07;101512.23;;;12.60;45.80
73242;BME280;65659;49.234;-2.094;2023-12-20T07:24:33;101515.75;;;13.04;45.77
73242;BME280;65659;49.234;-2.094;2023-12-20T07:26:59;101520.62;;;12.77;45.98
73242;BME280;65659;49.234;-2.094;2023-12-20T07:29:24;101512.49;;;13.25;46.09
73242;BME280;65659;49.234;-2.094;2023-12-20T07:31:50;101527.66;;;12.81;46.26
73242;BME280;65659;49.234;-2.094;2023-12-20T07:34:15;101535.29;;;12.87;46.35
73242;BME280;65659;49.234;-2.094;2023-12-20T07:36:41;101542.81;;;13.34;46.48
73242;BME280;65659;49.234;-2.094;2023-12-20T07:39:06;101549.73;;;12.89;46.49
73242;BME280;65659;49.234;-2.094;2023-12-20T07:41:32;101541.78;;;12.97;46.52
73242;BME280;65659;49.234;-2.094;2023-12-20T07:43:57;101534.46;;;13.13;46.23
73242;BME280;65659;49.234;-2.094;2023-12-20T07:46:23;101535.86;;;12.92;46.08
73242;BME280;65659;49.234;-2.094;2023-12-20T07:48:48;101534.49;;;12.93;46.17
73242;BME280;65659;49.234;-2.094;2023-12-20T07:51:14;101539.56;;;13.13;46.37
73242;BME280;65659;49.234;-2.094;2023-12-20T07:53:39;101542.02;;;12.93;45.81
73242;BME280;65659;49.234;-2.094;2023-12-20T07:56:14;101547.75;;;12.47;45.46
73242;BME280;65659;49.234;-2.094;2023-12-20T07:58:31;101543.43;;;12.77;45.26
73242;BME280;65659;49.234;-2.094;2023-12-20T08:00:57;101557.90;;;12.79;44.80
73242;BME280;65659;49.234;-2.094;2023-12-20T08:03:23;101557.76;;;13.30;44.72
73242;BME280;65659;49.234;-2.094;2023-12-20T08:05:49;101571.94;;;12.85;44.70
73242;BME280;65659;49.234;-2.094;2023-12-20T08:08:14;101565.87;;;13.00;44.57
73242;BME280;65659;49.234;-2.094;2023-12-20T08:10:39;101556.81;;;13.04;43.99
73242;BME280;65659;49.234;-2.094;2023-12-20T08:13:05;101560.83;;;12.71;43.58
73242;BME280;65659;49.234;-2.094;2023-12-20T08:15:30;101564.34;;;13.16;43.09
73242;BME280;65659;49.234;-2.094;2023-12-20T08:17:56;101568.69;;;13.40;42.68
73242;BME280;65659;49.234;-2.094;2023-12-20T08:20:21;101573.40;;;13.29;42.44
73242;BME280;65659;49.234;-2.094;2023-12-20T08:22:46;101563.79;;;13.23;41.77
73242;BME280;65659;49.234;-2.094;2023-12-20T08:25:12;101562.11;;;13.51;41.70
73242;BME280;65659;49.234;-2.094;2023-12-20T08:27:39;101570.15;;;13.12;41.97
73242;BME280;65659;49.234;-2.094;2023-12-20T08:30:04;101568.78;;;13.04;41.87
73242;BME280;65659;49.234;-2.094;2023-12-20T08:32:28;101564.34;;;13.69;41.45
73242;BME280;65659;49.234;-2.094;2023-12-20T08:34:54;101566.22;;;13.74;41.53
73242;BME280;65659;49.234;-2.094;2023-12-20T08:37:19;101561.42;;;13.66;41.53
73242;BME280;65659;49.234;-2.094;2023-12-20T08:39:45;101543.20;;;13.23;41.52
73242;BME280;65659;49.234;-2.094;2023-12-20T08:42:11;101528.60;;;13.82;41.12
73242;BME280;65659;49.234;-2.094;2023-12-20T08:44:36;101525.47;;;13.85;41.06
73242;BME280;65659;49.234;-2.094;2023-12-20T08:47:02;101537.69;;;13.68;41.04
73242;BME280;65659;49.234;-2.094;2023-12-20T08:49:26;101534.34;;;13.42;40.76
73242;BME280;65659;49.234;-2.094;2023-12-20T08:51:53;101538.38;;;14.21;41.06
73242;BME280;65659;49.234;-2.094;2023-12-20T08:54:18;101530.73;;;13.78;41.16
73242;BME280;65659;49.234;-2.094;2023-12-20T08:56:44;101532.04;;;13.33;41.14
73242;BME280;65659;49.234;-2.094;2023-12-20T08:59:13;101528.33;;;13.89;41.04
73242;BME280;65659;49.234;-2.094;2023-12-20T09:01:35;101532.50;;;13.46;41.05
73242;BME280;65659;49.234;-2.094;2023-12-20T09:04:01;101533.69;;;13.76;40.99
73242;BME280;65659;49.234;-2.094;2023-12-20T09:06:26;101544.55;;;13.72;40.85
73242;BME280;65659;49.234;-2.094;2023-12-20T09:08:53;101543.55;;;14.20;40.81
73242;BME280;65659;49.234;-2.094;2023-12-20T09:11:17;101541.86;;;13.79;40.84
73242;BME280;65659;49.234;-2.094;2023-12-20T09:13:41;101548.42;;;14.34;40.83
73242;BME280;65659;49.234;-2.094;2023-12-20T09:16:08;101546.03;;;13.71;41.14
73242;BME280;65659;49.234;-2.094;2023-12-20T09:18:34;101552.16;;;14.00;41.57
73242;BME280;65659;49.234;-2.094;2023-12-20T09:20:58;101563.15;;;14.24;41.81
73242;BME280;65659;49.234;-2.094;2023-12-20T09:23:27;101562.61;;;13.97;42.31
73242;BME280;65659;49.234;-2.094;2023-12-20T09:25:51;101565.93;;;13.62;42.63
73242;BME280;65659;49.234;-2.094;2023-12-20T09:28:18;101559.36;;;13.92;43.12
73242;BME280;65659;49.234;-2.094;2023-12-20T09:30:41;101559.19;;;13.64;43.80
73242;BME280;65659;49.234;-2.094;2023-12-20T09:33:07;101548.20;;;13.34;43.93
73242;BME280;65659;49.234;-2.094;2023-12-20T09:35:32;101548.16;;;13.74;43.56
73242;BME280;65659;49.234;-2.094;2023-12-20T09:38:01;101551.22;;;13.79;43.24
73242;BME280;65659;49.234;-2.094;2023-12-20T09:40:30;101550.18;;;13.65;43.02
73242;BME280;65659;49.234;-2.094;2023-12-20T09:42:57;101541.97;;;14.48;42.29
73242;BME280;65659;49.234;-2.094;2023-12-20T09:45:16;101546.17;;;14.64;42.13
73242;BME280;65659;49.234;-2.094;2023-12-20T09:47:41;101539.56;;;14.17;42.16
73242;BME280;65659;49.234;-2.094;2023-12-20T09:50:07;101546.11;;;14.51;41.54
73242;BME280;65659;49.234;-2.094;2023-12-20T09:52:31;101544.24;;;14.27;41.87
73242;BME280;65659;49.234;-2.094;2023-12-20T09:54:57;101543.44;;;14.29;42.03
73242;BME280;65659;49.234;-2.094;2023-12-20T09:57:25;101526.21;;;13.91;41.98
73242;BME280;65659;49.234;-2.094;2023-12-20T09:59:55;101526.54;;;14.05;41.88
73242;BME280;65659;49.234;-2.094;2023-12-20T10:02:15;101531.43;;;14.37;41.89
73242;BME280;65659;49.234;-2.094;2023-12-20T10:04:45;101531.56;;;14.33;42.43
73242;BME280;65659;49.234;-2.094;2023-12-20T10:07:06;101534.18;;;13.93;42.41
73242;BME280;65659;49.234;-2.094;2023-12-20T10:09:30;101534.43;;;14.13;42.08
73242;BME280;65659;49.234;-2.094;2023-12-20T10:11:55;101539.12;;;14.18;41.71
73242;BME280;65659;49.234;-2.094;2023-12-20T10:14:23;101533.65;;;14.49;41.71
73242;BME280;65659;49.234;-2.094;2023-12-20T10:16:49;101531.43;;;14.38;41.92
73242;BME280;65659;49.234;-2.094;2023-12-20T10:19:11;101520.67;;;14.10;42.03
73242;BME280;65659;49.234;-2.094;2023-12-20T10:21:38;101527.17;;;14.25;41.95
73242;BME280;65659;49.234;-2.094;2023-12-20T10:24:03;101542.28;;;14.52;42.07
73242;BME280;65659;49.234;-2.094;2023-12-20T10:26:28;101537.83;;;14.12;42.78
73242;BME280;65659;49.234;-2.094;2023-12-20T10:28:55;101533.60;;;13.85;43.49
73242;BME280;65659;49.234;-2.094;2023-12-20T10:31:28;101537.00;;;13.81;43.98
73242;BME280;65659;49.234;-2.094;2023-12-20T10:33:46;101540.04;;;13.86;43.87
73242;BME280;65659;49.234;-2.094;2023-12-20T10:36:10;101535.06;;;13.79;43.91
73242;BME280;65659;49.234;-2.094;2023-12-20T10:38:38;101535.35;;;13.74;44.06
73242;BME280;65659;49.234;-2.094;2023-12-20T10:41:03;101532.94;;;13.88;43.93
73242;BME280;65659;49.234;-2.094;2023-12-20T10:43:27;101530.03;;;13.75;44.06
73242;BME280;65659;49.234;-2.094;2023-12-20T10:45:53;101515.22;;;14.03;43.45
73242;BME280;65659;49.234;-2.094;2023-12-20T10:48:17;101526.87;;;13.73;43.78
73242;BME280;65659;49.234;-2.094;2023-12-20T10:50:43;101528.01;;;13.95;43.74
73242;BME280;65659;49.234;-2.094;2023-12-20T10:53:08;101517.07;;;14.09;43.67
73242;BME280;65659;49.234;-2.094;2023-12-20T10:55:34;101509.85;;;14.30;43.58
73242;BME280;65659;49.234;-2.094;2023-12-20T10:58:02;101510.62;;;14.31;43.34
73242;BME280;65659;49.234;-2.094;2023-12-20T11:00:26;101505.21;;;14.31;43.65
73242;BME280;65659;49.234;-2.094;2023-12-20T11:03:00;101511.92;;;14.00;44.03
73242;BME280;65659;49.234;-2.094;2023-12-20T11:05:28;101504.12;;;13.85;43.98
73242;BME280;65659;49.234;-2.094;2023-12-20T11:07:47;101504.71;;;13.81;43.78
73242;BME280;65659;49.234;-2.094;2023-12-20T11:10:13;101496.45;;;13.86;43.80
73242;BME280;65659;49.234;-2.094;2023-12-20T11:12:41;101504.99;;;14.00;43.79
73242;BME280;65659;49.234;-2.094;2023-12-20T11:15:00;101495.38;;;14.20;43.70
73242;BME280;65659;49.234;-2.094;2023-12-20T11:17:24;101495.49;;;14.34;43.50
73242;BME280;65659;49.234;-2.094;2023-12-20T11:20:05;101493.34;;;14.38;43.07
73242;BME280;65659;49.234;-2.094;2023-12-20T11:22:17;101490.47;;;14.58;42.91
73242;BME280;65659;49.234;-2.094;2023-12-20T11:24:46;101493.45;;;14.59;42.24
73242;BME280;65659;49.234;-2.094;2023-12-20T11:27:07;101476.70;;;14.67;41.96
73242;BME280;65659;49.234;-2.094;2023-12-20T11:29:34;101482.87;;;14.90;41.54
73242;BME280;65659;49.234;-2.094;2023-12-20T11:32:01;101476.51;;;15.01;41.70
73242;BME280;65659;49.234;-2.094;2023-12-20T11:34:29;101472.84;;;14.67;41.80
73242;BME280;65659;49.234;-2.094;2023-12-20T11:36:49;101470.78;;;14.91;41.50
73242;BME280;65659;49.234;-2.094;2023-12-20T11:39:19;101459.28;;;14.87;41.56
73242;BME280;65659;49.234;-2.094;2023-12-20T11:41:41;101447.77;;;14.95;41.26
73242;BME280;65659;49.234;-2.094;2023-12-20T11:44:08;101434.10;;;14.75;41.65
73242;BME280;65659;49.234;-2.094;2023-12-20T11:46:31;101431.08;;;14.95;41.46
73242;BME280;65659;49.234;-2.094;2023-12-20T11:48:57;101430.03;;;15.10;41.72
73242;BME280;65659;49.234;-2.094;2023-12-20T11:51:23;101439.95;;;14.90;41.73
73242;BME280;65659;49.234;-2.094;2023-12-20T11:53:54;101426.90;;;14.78;41.76
73242;BME280;65659;49.234;-2.094;2023-12-20T11:56:17;101434.10;;;15.13;41.48
73242;BME280;65659;49.234;-2.094;2023-12-20T11:58:39;101421.79;;;14.76;41.45
73242;BME280;65659;49.234;-2.094;2023-12-20T12:01:06;101408.73;;;14.89;41.22
73242;BME280;65659;49.234;-2.094;2023-12-20T12:03:32;101411.75;;;15.04;41.45
73242;BME280;65659;49.234;-2.094;2023-12-20T12:05:55;101410.84;;;14.91;41.42
73242;BME280;65659;49.234;-2.094;2023-12-20T12:08:20;101423.14;;;15.18;41.11
73242;BME280;65659;49.234;-2.094;2023-12-20T12:10:47;101414.75;;;15.18;41.26
73242;BME280;65659;49.234;-2.094;2023-12-20T12:13:18;101397.95;;;15.46;41.36
73242;BME280;65659;49.234;-2.094;2023-12-20T12:15:38;101403.57;;;15.55;40.93
73242;BME280;65659;49.234;-2.094;2023-12-20T12:18:03;101407.23;;;15.02;42.02
73242;BME280;65659;49.234;-2.094;2023-12-20T12:20:28;101411.98;;;14.62;42.42
73242;BME280;65659;49.234;-2.094;2023-12-20T12:22:59;101432.90;;;14.41;42.72
73242;BME280;65659;49.234;-2.094;2023-12-20T12:25:20;101430.87;;;14.50;43.71
73242;BME280;65659;49.234;-2.094;2023-12-20T12:27:47;101414.86;;;14.11;44.33
73242;BME280;65659;49.234;-2.094;2023-12-20T12:30:11;101405.55;;;13.93;44.53